sensor_id;sensor_type;location;lat;lon;timestamp;pressure;altitude;pressure_sealevel;temperature;humidity
10176;BME280;18221;38.704;0.152;2023-07-29T00:11:44;98664.75;;;32.16;44.11
10176;BME280;18221;38.704;0.152;2023-07-29T00:14:12;98669.72;;;32.14;44.27
10176;BME280;18221;38.704;0.152;2023-07-29T00:16:42;98670.50;;;32.20;44.31
10176;BME280;18221;38.704;0.152;2023-07-29T00:19:10;98668.84;;;32.19;44.37
10176;BME280;18221;38.704;0.152;2023-07-29T00:21:38;98669.41;;;32.16;44.24
10176;BME280;18221;38.704;0.152;2023-07-29T00:24:07;98664.50;;;32.13;44.59
10176;BME280;18221;38.704;0.152;2023-07-29T00:26:35;98662.09;;;32.06;44.85
10176;BME280;18221;38.704;0.152;2023-07-29T00:29:05;98668.97;;;31.99;44.91
10176;BME280;18221;38.704;0.152;2023-07-29T00:31:33;98666.25;;;31.99;44.95
10176;BME280;18221;38.704;0.152;2023-07-29T00:34:01;98666.25;;;31.99;45.06
10176;BME280;18221;38.704;0.152;2023-07-29T00:36:29;98659.38;;;32.01;44.88
10176;BME280;18221;38.704;0.152;2023-07-29T00:38:57;98663.50;;;31.99;45.09
10176;BME280;18221;38.704;0.152;2023-07-29T00:41:26;98654.13;;;32.05;45.09
10176;BME280;18221;38.704;0.152;2023-07-29T00:43:53;98650.91;;;31.93;45.45
10176;BME280;18221;38.704;0.152;2023-07-29T00:46:24;98653.34;;;31.99;45.24
10176;BME280;18221;38.704;0.152;2023-07-29T00:48:52;98655.25;;;31.99;45.19
10176;BME280;18221;38.704;0.152;2023-07-29T00:51:20;98646.44;;;31.97;45.19
10176;BME280;18221;38.704;0.152;2023-07-29T00:53:49;98646.75;;;31.95;45.34
10176;BME280;18221;38.704;0.152;2023-07-29T00:56:17;98640.97;;;31.97;45.45
10176;BME280;18221;38.704;0.152;2023-07-29T00:58:47;98643.44;;;31.98;45.56
10176;BME280;18221;38.704;0.152;2023-07-29T01:01:15;98638.25;;;31.92;45.69
10176;BME280;18221;38.704;0.152;2023-07-29T01:03:44;98639.34;;;31.96;45.59
10176;BME280;18221;38.704;0.152;2023-07-29T01:06:23;98629.72;;;31.98;45.48
10176;BME280;18221;38.704;0.152;2023-07-29T01:09:02;98626.72;;;31.95;45.59
10176;BME280;18221;38.704;0.152;2023-07-29T01:11:44;98629.97;;;31.97;45.68
10176;BME280;18221;38.704;0.152;2023-07-29T01:14:26;98629.41;;;32.05;45.66
10176;BME280;18221;38.704;0.152;2023-07-29T01:17:04;98626.66;;;32.05;45.43
10176;BME280;18221;38.704;0.152;2023-07-29T01:19:59;98619.50;;;32.09;45.51
10176;BME280;18221;38.704;0.152;2023-07-29T01:22:29;98617.84;;;32.08;45.33
10176;BME280;18221;38.704;0.152;2023-07-29T01:24:59;98623.34;;;32.08;45.20
10176;BME280;18221;38.704;0.152;2023-07-29T01:27:27;98618.97;;;32.02;45.51
10176;BME280;18221;38.704;0.152;2023-07-29T01:29:57;98620.09;;;32.01;45.62
10176;BME280;18221;38.704;0.152;2023-07-29T01:32:31;98616.81;;;31.99;45.26
10176;BME280;18221;38.704;0.152;2023-07-29T01:35:15;98609.41;;;31.94;45.51
10176;BME280;18221;38.704;0.152;2023-07-29T01:37:52;98609.97;;;31.96;45.39
10176;BME280;18221;38.704;0.152;2023-07-29T01:40:27;98611.94;;;31.91;45.71
10176;BME280;18221;38.704;0.152;2023-07-29T01:42:56;98615.25;;;31.88;45.77
10176;BME280;18221;38.704;0.152;2023-07-29T01:45:24;98606.47;;;31.86;45.83
10176;BME280;18221;38.704;0.152;2023-07-29T01:47:53;98616.34;;;31.87;45.87
10176;BME280;18221;38.704;0.152;2023-07-29T01:50:21;98607.88;;;31.83;45.82
10176;BME280;18221;38.704;0.152;2023-07-29T01:52:49;98610.06;;;31.81;45.91
10176;BME280;18221;38.704;0.152;2023-07-29T01:55:17;98604.59;;;31.76;45.77
10176;BME280;18221;38.704;0.152;2023-07-29T01:57:47;98612.06;;;31.75;46.08
10176;BME280;18221;38.704;0.152;2023-07-29T02:00:15;98612.63;;;31.72;45.92
10176;BME280;18221;38.704;0.152;2023-07-29T02:02:44;98613.41;;;31.78;45.94
10176;BME280;18221;38.704;0.152;2023-07-29T02:05:12;98605.72;;;31.75;46.05
10176;BME280;18221;38.704;0.152;2023-07-29T02:07:40;98612.09;;;31.65;45.86
10176;BME280;18221;38.704;0.152;2023-07-29T02:10:09;98598.69;;;31.64;46.06
10176;BME280;18221;38.704;0.152;2023-07-29T02:12:37;98608.25;;;31.66;46.11
10176;BME280;18221;38.704;0.152;2023-07-29T02:15:08;98602.81;;;31.61;46.32
10176;BME280;18221;38.704;0.152;2023-07-29T02:17:37;98598.97;;;31.57;46.27
10176;BME280;18221;38.704;0.152;2023-07-29T02:20:06;98602.28;;;31.59;45.95
10176;BME280;18221;38.704;0.152;2023-07-29T02:22:35;98597.38;;;31.56;46.05
10176;BME280;18221;38.704;0.152;2023-07-29T02:25:03;98596.84;;;31.54;46.00
10176;BME280;18221;38.704;0.152;2023-07-29T02:27:31;98590.75;;;31.57;45.83
10176;BME280;18221;38.704;0.152;2023-07-29T02:29:59;98600.38;;;31.55;45.61
10176;BME280;18221;38.704;0.152;2023-07-29T02:32:29;98597.41;;;31.51;45.86
10176;BME280;18221;38.704;0.152;2023-07-29T02:34:57;98595.47;;;31.52;45.71
10176;BME280;18221;38.704;0.152;2023-07-29T02:37:25;98597.41;;;31.51;45.91
10176;BME280;18221;38.704;0.152;2023-07-29T02:39:53;98595.75;;;31.50;45.63
10176;BME280;18221;38.704;0.152;2023-07-29T02:42:21;98600.97;;;31.52;45.54
10176;BME280;18221;38.704;0.152;2023-07-29T02:44:50;98599.34;;;31.46;45.92
10176;BME280;18221;38.704;0.152;2023-07-29T02:47:18;98601.28;;;31.40;45.83
10176;BME280;18221;38.704;0.152;2023-07-29T02:49:47;98602.94;;;31.41;46.05
10176;BME280;18221;38.704;0.152;2023-07-29T02:52:15;98607.28;;;31.42;46.12
10176;BME280;18221;38.704;0.152;2023-07-29T02:54:43;98602.91;;;31.46;45.99
10176;BME280;18221;38.704;0.152;2023-07-29T02:57:13;98602.38;;;31.44;45.99
10176;BME280;18221;38.704;0.152;2023-07-29T02:59:41;98593.56;;;31.47;45.93
10176;BME280;18221;38.704;0.152;2023-07-29T03:02:09;98599.06;;;31.47;45.99
10176;BME280;18221;38.704;0.152;2023-07-29T03:04:37;98600.16;;;31.51;45.96
10176;BME280;18221;38.704;0.152;2023-07-29T03:07:07;98599.31;;;31.51;45.84
10176;BME280;18221;38.704;0.152;2023-07-29T03:09:35;98595.19;;;31.53;45.81
10176;BME280;18221;38.704;0.152;2023-07-29T03:12:04;98596.31;;;31.47;45.90
10176;BME280;18221;38.704;0.152;2023-07-29T03:14:32;98598.25;;;31.47;45.78
10176;BME280;18221;38.704;0.152;2023-07-29T03:17:03;98593.56;;;31.47;45.69
10176;BME280;18221;38.704;0.152;2023-07-29T03:19:31;98595.50;;;31.47;45.78
10176;BME280;18221;38.704;0.152;2023-07-29T03:21:59;98597.44;;;31.46;45.77
10176;BME280;18221;38.704;0.152;2023-07-29T03:24:29;98602.91;;;31.46;45.63
10176;BME280;18221;38.704;0.152;2023-07-29T03:26:57;98601.28;;;31.45;45.69
10176;BME280;18221;38.704;0.152;2023-07-29T03:29:25;98599.34;;;31.46;45.52
10176;BME280;18221;38.704;0.152;2023-07-29T03:31:53;98602.91;;;31.46;45.40
10176;BME280;18221;38.704;0.152;2023-07-29T03:34:21;98605.09;;;31.44;45.37
10176;BME280;18221;38.704;0.152;2023-07-29T03:36:49;98599.63;;;31.44;45.39
10176;BME280;18221;38.704;0.152;2023-07-29T03:39:18;98603.97;;;31.50;45.42
10176;BME280;18221;38.704;0.152;2023-07-29T03:41:47;98603.41;;;31.53;45.40
10176;BME280;18221;38.704;0.152;2023-07-29T03:44:16;98609.97;;;31.57;45.59
10176;BME280;18221;38.704;0.152;2023-07-29T03:46:44;98609.69;;;31.59;45.52
10176;BME280;18221;38.704;0.152;2023-07-29T03:49:12;98614.88;;;31.60;45.46
10176;BME280;18221;38.704;0.152;2023-07-29T03:51:40;98610.78;;;31.58;45.69
10176;BME280;18221;38.704;0.152;2023-07-29T03:54:12;98605.09;;;31.44;45.71
10176;BME280;18221;38.704;0.152;2023-07-29T03:56:40;98610.59;;;31.39;46.07
10176;BME280;18221;38.704;0.152;2023-07-29T03:59:09;98611.72;;;31.38;45.97
10176;BME280;18221;38.704;0.152;2023-07-29T04:01:37;98611.38;;;31.45;45.80
10176;BME280;18221;38.704;0.152;2023-07-29T04:04:05;98618.00;;;31.49;45.90
10176;BME280;18221;38.704;0.152;2023-07-29T04:06:33;98612.78;;;31.42;45.91
10176;BME280;18221;38.704;0.152;2023-07-29T04:09:02;98613.72;;;31.23;46.40
10176;BME280;18221;38.704;0.152;2023-07-29T04:11:30;98621.13;;;31.22;46.81
10176;BME280;18221;38.704;0.152;2023-07-29T04:13:58;98614.56;;;31.23;46.54
10176;BME280;18221;38.704;0.152;2023-07-29T04:16:28;98619.47;;;31.21;46.83
10176;BME280;18221;38.704;0.152;2023-07-29T04:18:56;98622.75;;;31.28;46.58
10176;BME280;18221;38.704;0.152;2023-07-29T04:21:24;98624.94;;;31.26;46.47
10176;BME280;18221;38.704;0.152;2023-07-29T04:23:52;98624.94;;;31.31;46.56
10176;BME280;18221;38.704;0.152;2023-07-29T04:26:20;98627.69;;;31.26;46.55
10176;BME280;18221;38.704;0.152;2023-07-29T04:28:48;98629.06;;;31.29;46.65
10176;BME280;18221;38.704;0.152;2023-07-29T04:31:16;98636.69;;;31.37;46.50
10176;BME280;18221;38.704;0.152;2023-07-29T04:33:45;98635.28;;;31.44;46.33
10176;BME280;18221;38.704;0.152;2023-07-29T04:36:13;98643.25;;;31.41;46.28
10176;BME280;18221;38.704;0.152;2023-07-29T04:38:41;98642.47;;;31.35;46.33
10176;BME280;18221;38.704;0.152;2023-07-29T04:41:09;98638.38;;;31.33;46.50
10176;BME280;18221;38.704;0.152;2023-07-29T04:43:37;98637.53;;;31.32;46.61
10176;BME280;18221;38.704;0.152;2023-07-29T04:46:07;98645.75;;;31.32;46.46
10176;BME280;18221;38.704;0.152;2023-07-29T04:48:35;98652.94;;;31.28;46.43
10176;BME280;18221;38.704;0.152;2023-07-29T04:51:05;98655.91;;;31.32;46.78
10176;BME280;18221;38.704;0.152;2023-07-29T04:53:33;98654.28;;;31.31;46.75
10176;BME280;18221;38.704;0.152;2023-07-29T04:56:05;98655.69;;;31.28;46.67
10176;BME280;18221;38.704;0.152;2023-07-29T04:58:33;98655.13;;;31.26;46.68
10176;BME280;18221;38.704;0.152;2023-07-29T05:01:02;98664.47;;;31.25;46.63
10176;BME280;18221;38.704;0.152;2023-07-29T05:03:30;98660.38;;;31.23;46.79
10176;BME280;18221;38.704;0.152;2023-07-29T05:05:59;98665.00;;;31.27;46.74
10176;BME280;18221;38.704;0.152;2023-07-29T05:08:29;98666.66;;;31.28;46.66
10176;BME280;18221;38.704;0.152;2023-07-29T05:10:57;98669.94;;;31.30;46.84
10176;BME280;18221;38.704;0.152;2023-07-29T05:13:25;98673.75;;;31.29;46.72
10176;BME280;18221;38.704;0.152;2023-07-29T05:15:52;98664.16;;;31.32;46.73
10176;BME280;18221;38.704;0.152;2023-07-29T05:18:20;98669.59;;;31.37;46.62
10176;BME280;18221;38.704;0.152;2023-07-29T05:20:49;98680.88;;;31.35;46.47
10176;BME280;18221;38.704;0.152;2023-07-29T05:23:18;98683.63;;;31.35;46.34
10176;BME280;18221;38.704;0.152;2023-07-29T05:25:47;98684.72;;;31.34;46.63
10176;BME280;18221;38.704;0.152;2023-07-29T05:28:15;98681.97;;;31.34;46.52
10176;BME280;18221;38.704;0.152;2023-07-29T05:30:44;98683.06;;;31.38;46.38
10176;BME280;18221;38.704;0.152;2023-07-29T05:33:12;98680.59;;;31.47;46.52
10176;BME280;18221;38.704;0.152;2023-07-29T05:35:40;98676.72;;;31.48;46.37
10176;BME280;18221;38.704;0.152;2023-07-29T05:38:08;98680.81;;;31.50;46.27
10176;BME280;18221;38.704;0.152;2023-07-29T05:40:36;98686.31;;;31.50;46.27
10176;BME280;18221;38.704;0.152;2023-07-29T05:43:06;98681.91;;;31.54;46.45
10176;BME280;18221;38.704;0.152;2023-07-29T05:45:34;98676.66;;;31.58;46.10
10176;BME280;18221;38.704;0.152;2023-07-29T05:48:02;98677.78;;;31.57;45.88
10176;BME280;18221;38.704;0.152;2023-07-29T05:50:30;98679.13;;;31.59;46.08
10176;BME280;18221;38.704;0.152;2023-07-29T05:52:58;98673.63;;;31.64;46.05
10176;BME280;18221;38.704;0.152;2023-07-29T05:55:26;98677.22;;;31.60;46.19
10176;BME280;18221;38.704;0.152;2023-07-29T05:57:54;98681.88;;;31.59;46.19
10176;BME280;18221;38.704;0.152;2023-07-29T06:00:23;98692.06;;;31.54;46.39
10176;BME280;18221;38.704;0.152;2023-07-29T06:02:51;98683.00;;;31.53;46.42
10176;BME280;18221;38.704;0.152;2023-07-29T06:05:19;98690.16;;;31.44;46.72
10176;BME280;18221;38.704;0.152;2023-07-29T06:07:47;98688.25;;;31.40;47.06
10176;BME280;18221;38.704;0.152;2023-07-29T06:10:16;98690.44;;;31.48;47.22
10176;BME280;18221;38.704;0.152;2023-07-29T06:12:45;98701.16;;;31.49;47.16
10176;BME280;18221;38.704;0.152;2023-07-29T06:15:13;98698.09;;;31.56;46.72
10176;BME280;18221;38.704;0.152;2023-07-29T06:17:42;98708.78;;;31.52;46.52
10176;BME280;18221;38.704;0.152;2023-07-29T06:20:11;98713.22;;;31.48;46.63
10176;BME280;18221;38.704;0.152;2023-07-29T06:22:39;98704.38;;;31.61;46.66
10176;BME280;18221;38.704;0.152;2023-07-29T06:25:08;98705.97;;;31.72;46.52
10176;BME280;18221;38.704;0.152;2023-07-29T06:27:37;98705.59;;;31.84;45.85
10176;BME280;18221;38.704;0.152;2023-07-29T06:30:07;98706.97;;;31.82;45.59
10176;BME280;18221;38.704;0.152;2023-07-29T06:32:35;98706.38;;;31.90;45.51
10176;BME280;18221;38.704;0.152;2023-07-29T06:35:06;98697.28;;;32.04;45.67
10176;BME280;18221;38.704;0.152;2023-07-29T06:37:34;98706.22;;;32.20;45.42
10176;BME280;18221;38.704;0.152;2023-07-29T06:40:02;98704.16;;;32.30;44.70
10176;BME280;18221;38.704;0.152;2023-07-29T06:42:31;98709.81;;;32.44;44.73
10176;BME280;18221;38.704;0.152;2023-07-29T06:44:59;98706.06;;;32.35;44.89
10176;BME280;18221;38.704;0.152;2023-07-29T06:47:26;98707.84;;;32.21;44.91
10176;BME280;18221;38.704;0.152;2023-07-29T06:49:54;98713.75;;;32.33;44.89
10176;BME280;18221;38.704;0.152;2023-07-29T06:52:24;98708.22;;;32.43;44.82
10176;BME280;18221;38.704;0.152;2023-07-29T06:54:51;98706.44;;;32.57;44.40
10176;BME280;18221;38.704;0.152;2023-07-29T06:57:19;98705.13;;;32.78;44.34
10176;BME280;18221;38.704;0.152;2023-07-29T06:59:47;98708.84;;;32.92;43.94
10176;BME280;18221;38.704;0.152;2023-07-29T07:02:15;98718.31;;;32.81;44.41
10176;BME280;18221;38.704;0.152;2023-07-29T07:04:43;98713.16;;;32.98;44.00
10176;BME280;18221;38.704;0.152;2023-07-29T07:07:11;98712.28;;;33.08;44.15
10176;BME280;18221;38.704;0.152;2023-07-29T07:09:40;98714.31;;;33.21;43.52
10176;BME280;18221;38.704;0.152;2023-07-29T07:12:08;98709.72;;;33.35;43.26
10176;BME280;18221;38.704;0.152;2023-07-29T07:14:37;98711.75;;;33.48;43.11
10176;BME280;18221;38.704;0.152;2023-07-29T07:17:05;98708.47;;;33.46;42.47
10176;BME280;18221;38.704;0.152;2023-07-29T07:19:33;98706.38;;;33.62;42.00
10176;BME280;18221;38.704;0.152;2023-07-29T07:22:01;98718.75;;;33.83;42.20
10176;BME280;18221;38.704;0.152;2023-07-29T07:24:29;98715.00;;;33.93;41.60
10176;BME280;18221;38.704;0.152;2023-07-29T07:26:58;98721.44;;;33.88;41.05
10176;BME280;18221;38.704;0.152;2023-07-29T07:29:26;98717.56;;;33.89;40.33
10176;BME280;18221;38.704;0.152;2023-07-29T07:31:54;98713.25;;;33.83;41.11
10176;BME280;18221;38.704;0.152;2023-07-29T07:34:23;98725.44;;;33.96;40.33
10176;BME280;18221;38.704;0.152;2023-07-29T07:36:51;98730.75;;;34.11;40.66
10176;BME280;18221;38.704;0.152;2023-07-29T07:39:19;98733.66;;;34.20;39.60
10176;BME280;18221;38.704;0.152;2023-07-29T07:41:48;98726.94;;;34.26;39.03
10176;BME280;18221;38.704;0.152;2023-07-29T07:44:17;98734.88;;;33.90;39.79
10176;BME280;18221;38.704;0.152;2023-07-29T07:46:46;98733.03;;;33.85;40.54
10176;BME280;18221;38.704;0.152;2023-07-29T07:49:14;98727.41;;;34.14;40.00
10176;BME280;18221;38.704;0.152;2023-07-29T07:51:44;98724.84;;;33.99;39.67
10176;BME280;18221;38.704;0.152;2023-07-29T07:54:12;98734.41;;;34.06;40.85
10176;BME280;18221;38.704;0.152;2023-07-29T07:56:40;98738.56;;;34.23;40.51
10176;BME280;18221;38.704;0.152;2023-07-29T07:59:08;98737.06;;;34.30;39.83
10176;BME280;18221;38.704;0.152;2023-07-29T08:01:39;98733.13;;;34.50;39.16
10176;BME280;18221;38.704;0.152;2023-07-29T08:04:07;98738.19;;;34.94;38.24
10176;BME280;18221;38.704;0.152;2023-07-29T08:06:35;98734.84;;;35.24;37.93
10176;BME280;18221;38.704;0.152;2023-07-29T08:09:04;98732.09;;;35.65;37.17
10176;BME280;18221;38.704;0.152;2023-07-29T08:11:31;98735.50;;;36.33;35.19
10176;BME280;18221;38.704;0.152;2023-07-29T08:13:59;98733.75;;;36.90;34.44
10176;BME280;18221;38.704;0.152;2023-07-29T08:16:27;98727.97;;;37.40;33.79
10176;BME280;18221;38.704;0.152;2023-07-29T08:18:57;98736.88;;;37.67;33.26
10176;BME280;18221;38.704;0.152;2023-07-29T08:21:26;98732.06;;;38.24;32.23
10176;BME280;18221;38.704;0.152;2023-07-29T08:23:54;98728.69;;;39.00;30.75
10176;BME280;18221;38.704;0.152;2023-07-29T08:26:22;98718.22;;;39.43;30.00
10176;BME280;18221;38.704;0.152;2023-07-29T08:28:50;98729.13;;;39.19;30.05
10176;BME280;18221;38.704;0.152;2023-07-29T08:31:18;98728.06;;;39.61;29.47
10176;BME280;18221;38.704;0.152;2023-07-29T08:33:46;98738.00;;;39.41;29.58
10176;BME280;18221;38.704;0.152;2023-07-29T08:36:16;98732.69;;;39.66;28.78
10176;BME280;18221;38.704;0.152;2023-07-29T08:38:44;98729.28;;;40.10;28.10
10176;BME280;18221;38.704;0.152;2023-07-29T08:41:19;98733.41;;;40.57;26.96
10176;BME280;18221;38.704;0.152;2023-07-29T08:43:56;98742.16;;;39.85;27.89
10176;BME280;18221;38.704;0.152;2023-07-29T08:46:28;98735.53;;;39.40;28.86
10176;BME280;18221;38.704;0.152;2023-07-29T08:48:57;98747.69;;;39.27;29.51
10176;BME280;18221;38.704;0.152;2023-07-29T08:51:28;98744.19;;;39.01;29.61
10176;BME280;18221;38.704;0.152;2023-07-29T08:53:58;98741.00;;;38.13;31.39
10176;BME280;18221;38.704;0.152;2023-07-29T08:56:27;98744.50;;;37.53;32.26
10176;BME280;18221;38.704;0.152;2023-07-29T08:58:56;98740.00;;;36.96;33.46
10176;BME280;18221;38.704;0.152;2023-07-29T09:01:26;98746.56;;;36.56;34.01
10176;BME280;18221;38.704;0.152;2023-07-29T09:03:57;98736.78;;;36.49;34.33
10176;BME280;18221;38.704;0.152;2023-07-29T09:06:27;98733.34;;;36.30;34.60
10176;BME280;18221;38.704;0.152;2023-07-29T09:08:55;98741.75;;;36.03;35.03
10176;BME280;18221;38.704;0.152;2023-07-29T09:11:24;98739.78;;;36.04;35.66
10176;BME280;18221;38.704;0.152;2023-07-29T09:13:52;98734.84;;;36.14;35.25
10176;BME280;18221;38.704;0.152;2023-07-29T09:16:21;98739.03;;;35.76;36.62
10176;BME280;18221;38.704;0.152;2023-07-29T09:18:50;98738.03;;;35.58;36.53
10176;BME280;18221;38.704;0.152;2023-07-29T09:21:22;98736.38;;;35.44;36.67
10176;BME280;18221;38.704;0.152;2023-07-29T09:23:52;98730.78;;;35.35;37.25
10176;BME280;18221;38.704;0.152;2023-07-29T09:26:23;98728.91;;;35.30;37.66
10176;BME280;18221;38.704;0.152;2023-07-29T09:28:53;98720.63;;;35.30;37.50
10176;BME280;18221;38.704;0.152;2023-07-29T09:31:23;98730.34;;;35.42;37.31
10176;BME280;18221;38.704;0.152;2023-07-29T09:33:57;98720.19;;;35.78;36.39
10176;BME280;18221;38.704;0.152;2023-07-29T09:36:26;98714.13;;;35.54;37.29
10176;BME280;18221;38.704;0.152;2023-07-29T09:38:56;98719.19;;;35.33;37.42
10176;BME280;18221;38.704;0.152;2023-07-29T09:41:25;98720.84;;;35.34;37.25
10176;BME280;18221;38.704;0.152;2023-07-29T09:43:57;98716.94;;;35.49;37.64
10176;BME280;18221;38.704;0.152;2023-07-29T09:46:33;98711.88;;;35.56;37.14
10176;BME280;18221;38.704;0.152;2023-07-29T09:49:02;98713.28;;;35.53;36.56
10176;BME280;18221;38.704;0.152;2023-07-29T09:51:31;98729.56;;;35.27;37.68
10176;BME280;18221;38.704;0.152;2023-07-29T09:54:03;98734.97;;;35.19;38.01
10176;BME280;18221;38.704;0.152;2023-07-29T09:56:31;98735.34;;;35.12;38.39
10176;BME280;18221;38.704;0.152;2023-07-29T09:58:59;98737.16;;;35.03;37.86
10176;BME280;18221;38.704;0.152;2023-07-29T10:01:28;98732.47;;;34.90;38.37
10176;BME280;18221;38.704;0.152;2023-07-29T10:03:56;98729.28;;;34.83;38.56
10176;BME280;18221;38.704;0.152;2023-07-29T10:06:27;98725.72;;;34.96;38.55
10176;BME280;18221;38.704;0.152;2023-07-29T10:08:57;98737.75;;;34.87;38.43
10176;BME280;18221;38.704;0.152;2023-07-29T10:11:28;98731.31;;;34.91;38.26
10176;BME280;18221;38.704;0.152;2023-07-29T10:13:58;98731.91;;;34.74;38.66
10176;BME280;18221;38.704;0.152;2023-07-29T10:16:28;98723.81;;;34.64;38.93
10176;BME280;18221;38.704;0.152;2023-07-29T10:18:58;98724.72;;;34.60;39.13
10176;BME280;18221;38.704;0.152;2023-07-29T10:21:27;98741.88;;;34.57;39.18
10176;BME280;18221;38.704;0.152;2023-07-29T10:24:00;98741.28;;;34.41;39.18
10176;BME280;18221;38.704;0.152;2023-07-29T10:26:33;98743.41;;;34.12;39.91
10176;BME280;18221;38.704;0.152;2023-07-29T10:29:07;98738.31;;;34.38;39.16
10176;BME280;18221;38.704;0.152;2023-07-29T10:31:38;98740.81;;;34.53;38.92
10176;BME280;18221;38.704;0.152;2023-07-29T10:34:08;98746.41;;;34.48;38.71
10176;BME280;18221;38.704;0.152;2023-07-29T10:36:37;98748.44;;;34.42;39.35
10176;BME280;18221;38.704;0.152;2023-07-29T10:39:07;98742.50;;;34.35;39.58
10176;BME280;18221;38.704;0.152;2023-07-29T10:42:01;98744.75;;;34.33;39.30
10176;BME280;18221;38.704;0.152;2023-07-29T10:44:49;98735.88;;;34.36;39.63
10176;BME280;18221;38.704;0.152;2023-07-29T10:47:21;98732.97;;;34.28;39.79
10176;BME280;18221;38.704;0.152;2023-07-29T10:49:52;98733.13;;;34.18;40.05
10176;BME280;18221;38.704;0.152;2023-07-29T10:52:40;98732.16;;;34.27;39.53
10176;BME280;18221;38.704;0.152;2023-07-29T10:55:27;98739.38;;;34.04;40.18
10176;BME280;18221;38.704;0.152;2023-07-29T10:58:10;98732.72;;;34.05;40.46
10176;BME280;18221;38.704;0.152;2023-07-29T11:00:41;98733.88;;;34.23;40.13
10176;BME280;18221;38.704;0.152;2023-07-29T11:03:11;98729.53;;;33.98;40.28
10176;BME280;18221;38.704;0.152;2023-07-29T11:05:49;98722.19;;;34.12;40.09
10176;BME280;18221;38.704;0.152;2023-07-29T11:08:20;98722.00;;;34.04;40.09
10176;BME280;18221;38.704;0.152;2023-07-29T11:11:06;98720.97;;;34.19;40.05
10176;BME280;18221;38.704;0.152;2023-07-29T11:13:38;98723.38;;;34.06;40.60
10176;BME280;18221;38.704;0.152;2023-07-29T11:16:06;98722.31;;;34.02;40.40
10176;BME280;18221;38.704;0.152;2023-07-29T11:18:35;98723.81;;;34.13;40.05
10176;BME280;18221;38.704;0.152;2023-07-29T11:21:04;98724.22;;;34.07;40.21
10176;BME280;18221;38.704;0.152;2023-07-29T11:23:36;98718.63;;;34.12;40.47
10176;BME280;18221;38.704;0.152;2023-07-29T11:26:04;98725.47;;;34.14;40.40
10176;BME280;18221;38.704;0.152;2023-07-29T11:28:40;98715.16;;;34.39;39.87
10176;BME280;18221;38.704;0.152;2023-07-29T11:31:08;98713.75;;;34.23;40.03
10176;BME280;18221;38.704;0.152;2023-07-29T11:33:39;98715.72;;;34.54;39.42
10176;BME280;18221;38.704;0.152;2023-07-29T11:36:17;98718.69;;;34.58;39.29
10176;BME280;18221;38.704;0.152;2023-07-29T11:38:46;98714.22;;;34.62;39.47
10176;BME280;18221;38.704;0.152;2023-07-29T11:41:20;98708.13;;;34.46;39.96
10176;BME280;18221;38.704;0.152;2023-07-29T11:43:51;98705.47;;;34.55;39.95
10176;BME280;18221;38.704;0.152;2023-07-29T11:46:22;98701.31;;;34.57;40.07
10176;BME280;18221;38.704;0.152;2023-07-29T11:48:50;98697.44;;;34.58;40.01
10176;BME280;18221;38.704;0.152;2023-07-29T11:51:18;98697.69;;;34.75;39.16
10176;BME280;18221;38.704;0.152;2023-07-29T11:53:46;98698.84;;;34.88;38.95
10176;BME280;18221;38.704;0.152;2023-07-29T11:56:17;98692.22;;;35.16;38.58
10176;BME280;18221;38.704;0.152;2023-07-29T11:58:45;98691.00;;;35.09;38.44
10176;BME280;18221;38.704;0.152;2023-07-29T12:01:15;98688.53;;;34.94;39.04
10176;BME280;18221;38.704;0.152;2023-07-29T12:03:43;98693.78;;;35.09;38.10
10176;BME280;18221;38.704;0.152;2023-07-29T12:06:12;98694.88;;;35.21;38.29
10176;BME280;18221;38.704;0.152;2023-07-29T12:08:41;98682.69;;;35.36;37.97
10176;BME280;18221;38.704;0.152;2023-07-29T12:11:09;98684.84;;;35.39;37.81
10176;BME280;18221;38.704;0.152;2023-07-29T12:13:37;98688.31;;;35.45;37.48
10176;BME280;18221;38.704;0.152;2023-07-29T12:16:05;98680.75;;;35.37;37.50
10176;BME280;18221;38.704;0.152;2023-07-29T12:18:36;98680.59;;;35.19;37.94
10176;BME280;18221;38.704;0.152;2023-07-29T12:21:04;98679.53;;;35.15;38.46
10176;BME280;18221;38.704;0.152;2023-07-29T12:23:32;98671.38;;;35.24;37.72
10176;BME280;18221;38.704;0.152;2023-07-29T12:26:01;98667.41;;;35.16;38.18
10176;BME280;18221;38.704;0.152;2023-07-29T12:28:30;98667.00;;;35.09;38.03
10176;BME280;18221;38.704;0.152;2023-07-29T12:30:59;98659.09;;;35.30;37.77
10176;BME280;18221;38.704;0.152;2023-07-29T12:33:36;98650.72;;;35.35;38.17
10176;BME280;18221;38.704;0.152;2023-07-29T12:36:05;98657.03;;;35.35;37.53
10176;BME280;18221;38.704;0.152;2023-07-29T12:38:33;98649.28;;;35.38;37.88
10176;BME280;18221;38.704;0.152;2023-07-29T12:41:01;98649.66;;;35.45;37.13
10176;BME280;18221;38.704;0.152;2023-07-29T12:43:29;98635.59;;;35.32;37.64
10176;BME280;18221;38.704;0.152;2023-07-29T12:45:58;98633.78;;;35.14;37.91
10176;BME280;18221;38.704;0.152;2023-07-29T12:48:26;98641.91;;;35.33;37.30
10176;BME280;18221;38.704;0.152;2023-07-29T12:50:55;98643.19;;;35.63;37.54
10176;BME280;18221;38.704;0.152;2023-07-29T12:53:24;98643.22;;;35.35;37.49
10176;BME280;18221;38.704;0.152;2023-07-29T12:55:52;98629.84;;;35.43;37.73
10176;BME280;18221;38.704;0.152;2023-07-29T12:58:20;98647.03;;;35.53;37.12
10176;BME280;18221;38.704;0.152;2023-07-29T13:00:48;98637.19;;;35.47;37.10
10176;BME280;18221;38.704;0.152;2023-07-29T13:03:16;98633.72;;;35.55;37.43
10176;BME280;18221;38.704;0.152;2023-07-29T13:05:44;98637.56;;;35.68;36.82
10176;BME280;18221;38.704;0.152;2023-07-29T13:08:14;98630.22;;;35.50;37.22
10176;BME280;18221;38.704;0.152;2023-07-29T13:10:42;98627.56;;;35.45;37.17
10176;BME280;18221;38.704;0.152;2023-07-29T13:13:10;98621.59;;;35.65;37.06
10176;BME280;18221;38.704;0.152;2023-07-29T13:15:39;98631.22;;;35.67;37.03
10176;BME280;18221;38.704;0.152;2023-07-29T13:18:07;98626.94;;;35.61;37.00
10176;BME280;18221;38.704;0.152;2023-07-29T13:20:35;98616.09;;;35.87;36.79
10176;BME280;18221;38.704;0.152;2023-07-29T13:23:04;98624.53;;;35.82;36.27